Monday, October 22, 2018, 12:08 AM EDT
Back to Local

KRME, Griffiss Airfield

Location: Rome, NY, United States Lat: 43.233
Local Time: 12:08 AM EDT ( 4:08 GMT) Lon: -75.4
Time Zone: US/Eastern Elev: 505 ft

Show me the last for .
Show Decoded

2018-10-21 23:53 METAR KRME 220353Z AUTO 28007KT 10SM SCT043 OVC055 03/M02 A3014 RMK AO2 SLP209
                 T00331022 =
2018-10-21 22:53 METAR KRME 220253Z AUTO 27005KT 10SM OVC050 03/M02 A3013 RMK AO2 SLP206
                 T00331017 53008 =
2018-10-21 21:53 METAR KRME 220153Z AUTO 30006KT 10SM OVC049 03/M01 A3013 RMK AO2 SLP204
                 T00281011 =
2018-10-21 20:53 METAR KRME 220053Z 31004KT 10SM OVC044 03/M01 A3011 RMK AO2 SLP198 T00281011 =
2018-10-21 19:53 METAR KRME 212353Z 28008KT 10SM OVC050 03/M01 A3011 RMK AO2 SLP198 T00281011
                 10050 20028 51007 =
2018-10-21 18:53 METAR KRME 212253Z 26007KT 10SM OVC055 03/M03 A3010 RMK AO2 SLP197 T00331028 =
2018-10-21 17:53 METAR KRME 212153Z 30011KT 10SM OVC050 03/M03 A3010 RMK AO2 SLP194 T00331033 =
2018-10-21 16:53 METAR KRME 212053Z 28012G19KT 10SM OVC042 03/M03 A3008 RMK AO2 SLP190 T00331033
                 53004 =
2018-10-21 15:53 METAR KRME 211953Z 29015KT 10SM OVC048 04/M04 A3008 RMK AO2 SLP187 T00391044 =
2018-10-21 14:53 METAR KRME 211853Z 28014G23KT 10SM BKN050 04/M06 A3007 RMK AO2 SLP185 T00391056
                 =
2018-10-21 13:53 METAR KRME 211753Z 30016G25KT 10SM BKN049 04/M05 A3007 RMK AO2 PK WND 32026/1710
                 SLP186 T00391050 10050 20022 53007 =
2018-10-21 12:53 METAR KRME 211653Z 30016KT 10SM BKN049 04/M04 A3006 RMK AO2 PK WND 29026/1618
                 SLP180 T00441044 =
2018-10-21 11:53 METAR KRME 211553Z 33018G27KT 10SM OVC045 03/M06 A3006 RMK AO2 PK WND 32027/1551
                 SLP181 T00331056 =
2018-10-21 10:53 METAR KRME 211453Z 31019G25KT 10SM BKN040 OVC050 02/M04 A3005 RMK AO2 PK WND
                 31027/1433 SLP177 T00221044 51026 =
2018-10-21 09:53 METAR KRME 211353Z 31012KT 10SM BKN045 OVC050 02/M04 A3004 RMK AO2 SLP173
                 T00221044 =
2018-10-21 08:53 METAR KRME 211253Z 34013KT 10SM OVC044 02/M06 A3001 RMK AO2 SLP163 T00221061 =
2018-10-21 07:53 METAR KRME 211153Z 33018G24KT 10SM BKN039 OVC047 02/M04 A2997 RMK AO2 SLP150
                 70004 T00221039 10039 20011 53038 =
2018-10-21 06:53 METAR KRME 211053Z 35012G22KT 10SM BKN032 OVC039 02/M03 A2992 RMK AO2 SLP135
                 T00221033 =
2018-10-21 05:53 METAR KRME 210953Z AUTO 34015G19KT 10SM SCT030 OVC046 02/M03 A2990 RMK AO2
                 SLP124 T00221033 =
2018-10-21 05:08 METAR KRME 210908Z AUTO 35011KT 10SM BKN031 OVC050 02/M03 A2987 RMK AO2
                 T00221028 =
2018-10-21 04:53 METAR KRME 210853Z AUTO 35011KT 10SM BKN029 BKN055 02/M03 A2986 RMK AO2 SLP111
                 T00221028 53037 =
2018-10-21 04:27 METAR KRME 210827Z AUTO 30010KT 10SM BKN028 02/M02 A2984 RMK AO2 T00171017 =
2018-10-21 03:53 METAR KRME 210753Z AUTO 30009KT 10SM FEW028 02/M02 A2981 RMK AO2 SLP095
                 T00171022 =
2018-10-21 02:53 METAR KRME 210653Z AUTO 32009KT 10SM CLR 03/M02 A2978 RMK AO2 SLP085 T00281022 =
2018-10-21 01:53 METAR KRME 210553Z AUTO 33009KT 10SM CLR 04/M02 A2975 RMK AO2 SLP074 T00391017
                 10078 20039 53024 =
2018-10-21 00:53 METAR KRME 210453Z AUTO 35009G19KT 10SM CLR 05/M02 A2972 RMK AO2 SLP065
                 T00501017 401390050 =

Support USWX by starting your Amazon purchase here.